North Kansas City, Missouri
Current Conditions -  °F | °C
As of 1:54 PM on Sunday 21 Dec 2014 (Local Time) from KMKC Reporting Station
Overcast Overcast  
Wind Chill: 41°   Ceiling: 3800
Heat Index: 46°   Visibility: 10mi
Dew Point: 39°   Wind: 10mph
Humidity: 76%   Direction: 190°S
Pressure: 29.87"   Gusts: NA
Location:  39.1494°N, 94.5733°W
Report Text: KMKC 211954Z 19009KT 10SM SCT020 OVC038 08/04 A2987 RMK AO2 SLP117 T00780039
Loading
Personal Weather Stations






























Interactive Weather Map New forecast layout! Learn more

10-Day Weather Forecast

Advertisements
Track Severe Weather on mobile